Time;durP1;ratioP1;P1;durP2;ratioP2;P2;SDS_P1;SDS_P2;PMS_P1;PMS_P2;Temp;Humidity;BMP_temperature;BMP_pressure;BME280_temperature;BME280_humidity;BME280_pressure;Samples;Min_cycle;Max_cycle;Signal;HPM_P1;HPM_P2
2021/06/28 00:00:59;;;;;;;;;;;;;;;18.60;78.29;101416.06;5135652;27;19915;-40
2021/06/28 00:03:24;;;;;;;;;;;;;;;18.59;79.10;101423.44;5135392;27;19996;-40
2021/06/28 00:05:49;;;;;;;;;;;;;;;18.55;79.91;101413.31;5135822;27;20320;-40
2021/06/28 00:08:15;;;;;;;;;;;;;;;18.50;78.66;101411.41;5135211;27;19999;-40
2021/06/28 00:10:40;;;;;;;;;;;;;;;18.47;79.52;101406.44;5135219;27;19907;-40
2021/06/28 00:13:05;;;;;;;;;;;;;;;18.45;80.40;101403.97;5135148;27;19914;-40
2021/06/28 00:15:32;;;;;;;;;;;;;;;18.40;78.74;101408.63;5135203;27;20328;-40
2021/06/28 00:17:57;;;;;;;;;;;;;;;18.38;78.94;101408.06;5134789;27;19907;-40
2021/06/28 00:20:23;;;;;;;;;;;;;;;18.37;78.43;101407.25;5135367;27;19983;-40
2021/06/28 00:22:48;;;;;;;;;;;;;;;18.37;78.32;101403.69;5134792;27;20270;-40
2021/06/28 00:25:15;;;;;;;;;;;;;;;18.37;78.12;101400.94;5135038;27;19930;-40
2021/06/28 00:27:41;;;;;;;;;;;;;;;18.38;80.25;101402.59;5135387;27;20281;-40
2021/06/28 00:30:12;;;;;;;;;;;;;;;18.33;78.56;101397.91;5134945;27;19907;-40
2021/06/28 00:32:37;;;;;;;;;;;;;;;18.30;77.79;101401.22;5134658;27;19959;-40
2021/06/28 00:35:03;;;;;;;;;;;;;;;18.31;77.78;101391.06;5135540;27;20355;-40
2021/06/28 00:37:28;;;;;;;;;;;;;;;18.31;77.96;101399.28;5135355;27;19914;-40
2021/06/28 00:39:53;;;;;;;;;;;;;;;18.30;78.13;101394.88;5134892;27;19907;-40
2021/06/28 00:42:22;;;;;;;;;;;;;;;18.27;78.26;101386.13;5134796;28;19908;-40
2021/06/28 00:44:47;;;;;;;;;;;;;;;18.23;79.56;101385.00;5134782;27;19908;-40
2021/06/28 00:47:13;;;;;;;;;;;;;;;18.21;78.94;101378.19;5135040;27;20397;-40
2021/06/28 00:49:38;;;;;;;;;;;;;;;18.20;78.35;101379.25;5134781;28;19911;-40
2021/06/28 00:52:03;;;;;;;;;;;;;;;18.20;77.97;101381.97;5135315;28;19911;-41
2021/06/28 00:54:29;;;;;;;;;;;;;;;18.19;78.39;101370.22;5135075;27;19944;-41
2021/06/28 00:56:54;;;;;;;;;;;;;;;18.20;78.12;101374.63;5135537;27;20211;-40
2021/06/28 00:59:20;;;;;;;;;;;;;;;18.18;79.41;101376.78;5134613;28;20239;-40
2021/06/28 01:01:45;;;;;;;;;;;;;;;18.15;78.34;101374.56;5135198;27;19911;-40
2021/06/28 01:04:10;;;;;;;;;;;;;;;18.12;78.24;101368.84;5134309;27;20361;-40
2021/06/28 01:06:36;;;;;;;;;;;;;;;18.10;78.51;101369.09;5135451;28;19907;-40
2021/06/28 01:09:01;;;;;;;;;;;;;;;18.10;79.05;101368.28;5134526;28;20299;-40
2021/06/28 01:11:26;;;;;;;;;;;;;;;18.06;79.32;101362.53;5134977;28;20243;-40
2021/06/28 01:13:52;;;;;;;;;;;;;;;18.04;80.09;101364.69;5134471;28;19907;-40
2021/06/28 01:16:17;;;;;;;;;;;;;;;18.01;79.23;101362.50;5134603;27;20358;-40
2021/06/28 01:18:43;;;;;;;;;;;;;;;18.00;79.26;101358.09;5134246;27;20019;-40
2021/06/28 01:21:10;;;;;;;;;;;;;;;18.01;79.43;101365.25;5134774;27;19964;-40
2021/06/28 01:23:35;;;;;;;;;;;;;;;18.01;80.17;101359.78;5134474;27;19932;-40
2021/06/28 01:26:02;;;;;;;;;;;;;;;17.98;80.96;101363.03;5134453;28;19907;-40
2021/06/28 01:28:28;;;;;;;;;;;;;;;17.96;79.82;101370.72;5134382;27;19908;-40
2021/06/28 01:30:54;;;;;;;;;;;;;;;17.93;79.74;101371.22;5134861;27;19907;-40
2021/06/28 01:33:19;;;;;;;;;;;;;;;17.92;79.03;101375.06;5134262;27;19907;-40
2021/06/28 01:35:45;;;;;;;;;;;;;;;17.94;79.02;101389.28;5134665;28;19914;-40
2021/06/28 01:38:11;;;;;;;;;;;;;;;17.90;80.78;101397.19;5134576;27;19976;-40
2021/06/28 01:40:37;;;;;;;;;;;;;;;17.86;79.46;101404.31;5136672;27;20002;-40
2021/06/28 01:43:02;;;;;;;;;;;;;;;17.88;79.47;101406.78;5138132;27;19907;-40
2021/06/28 01:45:27;;;;;;;;;;;;;;;17.88;79.29;101407.59;5138920;27;20346;-40
2021/06/28 01:47:56;;;;;;;;;;;;;;;17.88;79.16;101399.38;5138023;27;19950;-40
2021/06/28 01:50:23;;;;;;;;;;;;;;;17.88;78.58;101398.56;5138221;27;20002;-40
2021/06/28 01:52:48;;;;;;;;;;;;;;;17.88;78.48;101404.84;5138119;27;20355;-40
2021/06/28 01:55:14;;;;;;;;;;;;;;;17.87;78.72;101402.41;5137638;27;19966;-40
2021/06/28 01:57:41;;;;;;;;;;;;;;;17.86;78.34;101395.25;5138181;27;19911;-40
2021/06/28 02:00:07;;;;;;;;;;;;;;;17.86;78.83;101398.00;5138040;27;19907;-40
2021/06/28 02:02:32;;;;;;;;;;;;;;;17.84;78.38;101390.06;5137747;27;19960;-40
2021/06/28 02:04:57;;;;;;;;;;;;;;;17.83;79.09;101390.34;5138484;27;20220;-40
2021/06/28 02:07:24;;;;;;;;;;;;;;;17.81;78.55;101395.22;5137855;27;19918;-40
2021/06/28 02:09:49;;;;;;;;;;;;;;;17.79;78.54;101395.50;5138411;27;19908;-40
2021/06/28 02:12:15;;;;;;;;;;;;;;;17.78;78.22;101396.59;5136149;27;19929;-40
2021/06/28 02:14:40;;;;;;;;;;;;;;;17.78;78.69;101399.34;5137518;27;19908;-40
2021/06/28 02:17:05;;;;;;;;;;;;;;;17.75;78.63;101395.22;5137423;27;19914;-40
2021/06/28 02:19:30;;;;;;;;;;;;;;;17.72;78.66;101395.72;5137471;27;19968;-40
2021/06/28 02:21:55;;;;;;;;;;;;;;;17.72;78.53;101393.00;5137364;27;19907;-40
2021/06/28 02:24:21;;;;;;;;;;;;;;;17.71;78.24;101385.88;5137009;27;20343;-40
2021/06/28 02:26:46;;;;;;;;;;;;;;;17.67;78.52;101381.22;5137303;27;19907;-40
2021/06/28 02:29:12;;;;;;;;;;;;;;;17.64;78.39;101396.22;5137228;27;19950;-40
2021/06/28 02:31:37;;;;;;;;;;;;;;;17.61;78.26;101395.91;5136859;27;19911;-40
2021/06/28 02:34:03;;;;;;;;;;;;;;;17.57;78.55;101398.38;5136830;27;19915;-40
2021/06/28 02:36:28;;;;;;;;;;;;;;;17.54;78.36;101400.81;5138036;27;19908;-40
2021/06/28 02:38:55;;;;;;;;;;;;;;;17.52;78.73;101398.34;5136787;27;19968;-40
2021/06/28 02:41:21;;;;;;;;;;;;;;;17.51;78.29;101402.16;5137301;27;19976;-40
2021/06/28 02:43:47;;;;;;;;;;;;;;;17.50;78.80;101403.25;5136592;27;20360;-40
2021/06/28 02:46:12;;;;;;;;;;;;;;;17.47;78.69;101398.28;5137516;27;19911;-40
2021/06/28 02:48:38;;;;;;;;;;;;;;;17.43;78.45;101399.94;5137411;27;19915;-40
2021/06/28 02:51:05;;;;;;;;;;;;;;;17.42;78.73;101406.44;5136024;27;19907;-40
2021/06/28 02:53:30;;;;;;;;;;;;;;;17.40;78.86;101397.69;5137282;27;20002;-40
2021/06/28 02:56:12;;;;;;;;;;;;;;;17.36;78.40;101396.56;5137653;27;20333;-40
2021/06/28 02:58:37;;;;;;;;;;;;;;;17.32;78.85;101399.00;5136665;27;19922;-40
2021/06/28 03:01:02;;;;;;;;;;;;;;;17.28;78.42;101403.38;5136596;27;19916;-40
2021/06/28 03:03:27;;;;;;;;;;;;;;;17.25;78.90;101396.50;5136534;27;19907;-40
2021/06/28 03:05:52;;;;;;;;;;;;;;;17.21;78.79;101400.84;5137021;27;19993;-40
2021/06/28 03:08:18;;;;;;;;;;;;;;;17.17;78.87;101402.44;5136186;27;20276;-40
2021/06/28 03:10:43;;;;;;;;;;;;;;;17.14;78.73;101400.25;5136661;27;19907;-40
2021/06/28 03:13:09;;;;;;;;;;;;;;;17.12;78.77;101399.69;5136472;27;19936;-40
2021/06/28 03:15:34;;;;;;;;;;;;;;;17.08;79.86;101389.53;5136586;27;19908;-40
2021/06/28 03:18:00;;;;;;;;;;;;;;;17.06;80.16;101392.53;5136263;27;19959;-40
2021/06/28 03:20:25;;;;;;;;;;;;;;;17.03;79.95;101381.28;5136508;27;20005;-40
2021/06/28 03:22:50;;;;;;;;;;;;;;;17.00;79.78;101379.91;5136067;27;19907;-40
2021/06/28 03:25:16;;;;;;;;;;;;;;;17.02;79.70;101376.91;5136365;27;19907;-40
2021/06/28 03:27:42;;;;;;;;;;;;;;;17.02;79.33;101382.38;5135814;27;19976;-40
2021/06/28 03:30:08;;;;;;;;;;;;;;;17.03;79.24;101389.50;5136655;27;19911;-40
2021/06/28 03:32:34;;;;;;;;;;;;;;;17.03;79.56;101392.22;5135832;27;19907;-40
2021/06/28 03:34:59;;;;;;;;;;;;;;;16.99;79.46;101391.94;5135927;27;19907;-40
2021/06/28 03:37:24;;;;;;;;;;;;;;;16.97;79.32;101386.72;5135846;27;19976;-40
2021/06/28 03:39:50;;;;;;;;;;;;;;;16.94;79.54;101379.06;5135777;27;20248;-40
2021/06/28 03:42:15;;;;;;;;;;;;;;;16.91;79.41;101395.97;5135467;27;19957;-40
2021/06/28 03:44:40;;;;;;;;;;;;;;;16.90;78.97;101390.75;5135795;27;19942;-40
2021/06/28 03:47:06;;;;;;;;;;;;;;;16.90;79.19;101393.50;5136214;27;19915;-40
2021/06/28 03:49:31;;;;;;;;;;;;;;;16.91;79.61;101395.13;5135317;27;19907;-40
2021/06/28 03:51:56;;;;;;;;;;;;;;;16.91;79.06;101389.69;5135150;27;19921;-41
2021/06/28 03:54:21;;;;;;;;;;;;;;;16.92;79.19;101380.38;5135524;27;19915;-40
2021/06/28 03:56:47;;;;;;;;;;;;;;;16.95;79.08;101377.97;5135848;27;19911;-40
2021/06/28 03:59:12;;;;;;;;;;;;;;;16.97;79.17;101383.16;5135983;27;19918;-40
2021/06/28 04:01:37;;;;;;;;;;;;;;;16.97;79.02;101385.91;5135976;27;20398;-40
2021/06/28 04:04:02;;;;;;;;;;;;;;;16.95;79.26;101388.91;5134990;27;20404;-40
2021/06/28 04:06:28;;;;;;;;;;;;;;;16.95;79.46;101390.81;5135946;27;19948;-40
2021/06/28 04:08:53;;;;;;;;;;;;;;;16.94;79.46;101389.16;5135274;27;20251;-40
2021/06/28 04:11:18;;;;;;;;;;;;;;;16.93;79.23;101382.88;5135250;27;19915;-40
2021/06/28 04:13:44;;;;;;;;;;;;;;;16.95;79.33;101383.44;5135189;27;20262;-40
2021/06/28 04:16:10;;;;;;;;;;;;;;;16.98;79.77;101382.91;5135592;27;20258;-40
2021/06/28 04:18:35;;;;;;;;;;;;;;;17.00;80.05;101377.19;5135159;27;19907;-40
2021/06/28 04:21:00;;;;;;;;;;;;;;;17.05;80.17;101379.97;5134824;27;19968;-40
2021/06/28 04:23:25;;;;;;;;;;;;;;;17.09;79.85;101378.34;5135042;27;20010;-40
2021/06/28 04:25:51;;;;;;;;;;;;;;;17.15;80.59;101380.03;5135370;27;19929;-40
2021/06/28 04:28:16;;;;;;;;;;;;;;;17.17;82.16;101374.31;5134735;27;19914;-40
2021/06/28 04:30:41;;;;;;;;;;;;;;;17.16;82.16;101370.75;5135034;27;19914;-39
2021/06/28 04:33:06;;;;;;;;;;;;;;;17.22;81.37;101372.41;5135133;27;19929;-40
2021/06/28 04:35:32;;;;;;;;;;;;;;;17.32;81.18;101373.59;5134971;27;20256;-40
2021/06/28 04:37:57;;;;;;;;;;;;;;;17.47;83.18;101380.00;5134897;27;19907;-40
2021/06/28 04:40:24;;;;;;;;;;;;;;;17.54;83.65;101374.28;5135491;27;20007;-40
2021/06/28 04:42:49;;;;;;;;;;;;;;;17.59;84.92;101374.31;5134864;27;19914;-40
2021/06/28 04:45:15;;;;;;;;;;;;;;;17.55;85.48;101383.31;5134584;27;19907;-40
2021/06/28 04:47:40;;;;;;;;;;;;;;;17.51;86.21;101383.00;5134516;27;19907;-40
2021/06/28 04:50:07;;;;;;;;;;;;;;;17.54;85.14;101387.13;5134687;28;19907;-40
2021/06/28 04:52:34;;;;;;;;;;;;;;;17.66;84.76;101383.09;5134381;27;19972;-40
2021/06/28 04:55:00;;;;;;;;;;;;;;;17.77;84.20;101388.66;5135308;27;19914;-40
2021/06/28 04:57:25;;;;;;;;;;;;;;;17.89;83.37;101383.78;5134688;27;19907;-40
2021/06/28 04:59:50;;;;;;;;;;;;;;;17.97;84.36;101381.38;5134765;27;19908;-40
2021/06/28 05:02:16;;;;;;;;;;;;;;;17.97;85.09;101380.56;5134561;28;19954;-40
2021/06/28 05:04:41;;;;;;;;;;;;;;;17.98;83.66;101388.50;5134991;28;19907;-40
2021/06/28 05:07:06;;;;;;;;;;;;;;;17.97;84.09;101378.63;5134557;28;19908;-40
2021/06/28 05:09:32;;;;;;;;;;;;;;;17.84;85.55;101378.31;5135199;28;19926;-40
2021/06/28 05:11:57;;;;;;;;;;;;;;;17.84;84.19;101373.66;5134217;27;19914;-40
2021/06/28 05:14:22;;;;;;;;;;;;;;;17.91;84.88;101376.13;5135011;27;19995;-40
2021/06/28 05:16:48;;;;;;;;;;;;;;;17.96;83.64;101373.44;5139189;27;19992;-40
2021/06/28 05:19:13;;;;;;;;;;;;;;;18.07;83.52;101375.13;5137290;27;20018;-40
2021/06/28 05:21:38;;;;;;;;;;;;;;;18.16;82.83;101364.47;5138214;27;19915;-40
2021/06/28 05:24:03;;;;;;;;;;;;;;;18.21;83.58;101365.31;5138780;27;19908;-40
2021/06/28 05:26:29;;;;;;;;;;;;;;;18.32;82.85;101368.91;5138412;27;19911;-40
2021/06/28 05:28:54;;;;;;;;;;;;;;;18.48;82.53;101377.97;5138357;27;20032;-40
2021/06/28 05:31:19;;;;;;;;;;;;;;;18.60;82.84;101375.81;5139079;27;20392;-40
2021/06/28 05:33:44;;;;;;;;;;;;;;;18.60;82.52;101373.06;5138310;27;19952;-40
2021/06/28 05:36:10;;;;;;;;;;;;;;;18.66;82.88;101376.63;5138485;27;19907;-40
2021/06/28 05:38:35;;;;;;;;;;;;;;;18.73;83.48;101377.19;5138162;27;19959;-40
2021/06/28 05:41:00;;;;;;;;;;;;;;;18.76;83.33;101373.94;5138454;27;19914;-40
2021/06/28 05:43:25;;;;;;;;;;;;;;;18.65;83.23;101373.06;5137835;27;19907;-40
2021/06/28 05:45:51;;;;;;;;;;;;;;;18.64;83.76;101363.22;5138888;27;19930;-40
2021/06/28 05:48:16;;;;;;;;;;;;;;;18.70;83.86;101361.34;5138232;27;19907;-40
2021/06/28 05:50:41;;;;;;;;;;;;;;;18.82;83.23;101363.78;5137011;27;19943;-40
2021/06/28 05:53:06;;;;;;;;;;;;;;;18.88;83.30;101358.03;5138641;27;19917;-40
2021/06/28 05:55:32;;;;;;;;;;;;;;;18.80;83.48;101353.13;5137899;27;20005;-40
2021/06/28 05:57:57;;;;;;;;;;;;;;;18.80;83.76;101352.28;5137548;27;19955;-40
2021/06/28 06:00:22;;;;;;;;;;;;;;;18.87;83.58;101348.16;5137754;27;19964;-40
2021/06/28 06:02:48;;;;;;;;;;;;;;;18.94;83.39;101345.19;5137719;27;19911;-40
2021/06/28 06:05:13;;;;;;;;;;;;;;;18.98;83.09;101351.72;5138298;27;19907;-40
2021/06/28 06:07:39;;;;;;;;;;;;;;;19.04;83.10;101348.72;5137855;27;19964;-40
2021/06/28 06:10:05;;;;;;;;;;;;;;;19.14;83.10;101350.63;5137906;27;20351;-40
2021/06/28 06:12:30;;;;;;;;;;;;;;;19.24;82.81;101341.56;5137493;27;19908;-40
2021/06/28 06:14:56;;;;;;;;;;;;;;;19.20;83.52;101343.22;5137321;27;20394;-40
2021/06/28 06:17:21;;;;;;;;;;;;;;;19.14;83.38;101339.66;5137462;27;20389;-40
2021/06/28 06:19:46;;;;;;;;;;;;;;;19.17;84.16;101341.03;5137507;27;19961;-40
2021/06/28 06:22:11;;;;;;;;;;;;;;;19.25;83.33;101344.03;5137428;27;19934;-40
2021/06/28 06:24:37;;;;;;;;;;;;;;;19.40;84.10;101350.59;5138188;27;20254;-40
2021/06/28 06:27:03;;;;;;;;;;;;;;;19.50;82.87;101348.63;5136622;27;20363;-40
2021/06/28 06:29:29;;;;;;;;;;;;;;;19.61;83.05;101343.97;5137234;27;19907;-40
2021/06/28 06:31:54;;;;;;;;;;;;;;;19.76;82.49;101346.69;5137448;27;20380;-40
2021/06/28 06:34:19;;;;;;;;;;;;;;;19.93;81.94;101337.25;5137424;27;20339;-40
2021/06/28 06:36:44;;;;;;;;;;;;;;;19.88;81.08;101331.81;5136802;27;19911;-40
2021/06/28 06:39:10;;;;;;;;;;;;;;;19.93;81.52;101329.03;5137595;27;19952;-40
2021/06/28 06:41:35;;;;;;;;;;;;;;;19.95;81.01;101333.13;5137056;27;19909;-40
2021/06/28 06:44:00;;;;;;;;;;;;;;;20.00;81.07;101319.38;5136933;27;20013;-40
2021/06/28 06:46:25;;;;;;;;;;;;;;;20.13;80.87;101325.34;5137538;27;19907;-40
2021/06/28 06:48:51;;;;;;;;;;;;;;;20.24;80.96;101325.00;5136890;27;19908;-40
2021/06/28 06:51:17;;;;;;;;;;;;;;;20.36;80.74;101329.34;5137594;27;20014;-40
2021/06/28 06:53:43;;;;;;;;;;;;;;;20.44;81.52;101334.22;5137151;27;19989;-40
2021/06/28 06:56:08;;;;;;;;;;;;;;;20.47;80.67;101342.75;5136580;27;20294;-40
2021/06/28 06:58:34;;;;;;;;;;;;;;;20.36;80.46;101343.91;5137206;27;19915;-40
2021/06/28 07:00:59;;;;;;;;;;;;;;;20.35;81.35;101350.50;5136933;27;19956;-40
2021/06/28 07:03:25;;;;;;;;;;;;;;;20.42;80.68;101356.47;5136599;27;19960;-40
2021/06/28 07:05:50;;;;;;;;;;;;;;;20.53;80.29;101357.25;5136883;27;19907;-40
2021/06/28 07:08:16;;;;;;;;;;;;;;;20.66;80.11;101351.13;5137076;27;20227;-40
2021/06/28 07:10:42;;;;;;;;;;;;;;;20.80;79.95;101356.81;5137076;27;19914;-40
2021/06/28 07:13:07;;;;;;;;;;;;;;;20.90;79.53;101356.72;5136699;27;19915;-40
2021/06/28 07:15:32;;;;;;;;;;;;;;;20.97;79.22;101337.94;5135101;27;19915;-40
2021/06/28 07:17:57;;;;;;;;;;;;;;;21.06;78.40;101338.16;5136317;27;19907;-40
2021/06/28 07:20:23;;;;;;;;;;;;;;;21.11;78.44;101351.84;5136236;27;19907;-40
2021/06/28 07:22:49;;;;;;;;;;;;;;;21.11;78.49;101359.28;5136198;27;19908;-40
2021/06/28 07:25:15;;;;;;;;;;;;;;;21.16;78.14;101368.28;5136653;27;19907;-40
2021/06/28 07:27:41;;;;;;;;;;;;;;;21.18;78.50;101371.59;5135812;27;19930;-40
2021/06/28 07:30:08;;;;;;;;;;;;;;;21.26;78.65;101386.63;5136400;27;19914;-40
2021/06/28 07:32:33;;;;;;;;;;;;;;;21.23;77.71;101379.81;5135925;27;19940;-40
2021/06/28 07:34:58;;;;;;;;;;;;;;;21.32;77.95;101391.00;5136040;27;19908;-40
2021/06/28 07:37:23;;;;;;;;;;;;;;;21.42;77.89;101388.16;5135594;27;19914;-40
2021/06/28 07:39:49;;;;;;;;;;;;;;;21.54;77.35;101390.53;5136484;27;20251;-40
2021/06/28 07:42:14;;;;;;;;;;;;;;;21.63;77.60;101388.78;5136031;27;19954;-40
2021/06/28 07:44:39;;;;;;;;;;;;;;;21.72;77.01;101381.50;5135546;27;19921;-40
2021/06/28 07:47:05;;;;;;;;;;;;;;;21.77;76.38;101384.22;5135447;27;19907;-40
2021/06/28 07:49:30;;;;;;;;;;;;;;;21.82;76.35;101372.31;5135780;27;19998;-40
2021/06/28 07:51:55;;;;;;;;;;;;;;;21.91;76.13;101373.31;5136141;27;20246;-40
2021/06/28 07:54:22;;;;;;;;;;;;;;;21.98;75.02;101372.94;5136040;27;19911;-40
2021/06/28 07:56:47;;;;;;;;;;;;;;;22.00;75.82;101373.47;5135902;27;19918;-40
2021/06/28 07:59:13;;;;;;;;;;;;;;;22.08;75.63;101379.13;5135878;27;20247;-40
2021/06/28 08:01:38;;;;;;;;;;;;;;;22.20;75.22;101372.41;5135591;27;19912;-40
2021/06/28 08:04:03;;;;;;;;;;;;;;;22.31;74.88;101365.66;5135449;27;19907;-40
2021/06/28 08:06:29;;;;;;;;;;;;;;;22.43;74.41;101362.44;5135217;27;19980;-40
2021/06/28 08:08:54;;;;;;;;;;;;;;;22.56;74.80;101356.19;5135134;27;19919;-40
2021/06/28 08:11:21;;;;;;;;;;;;;;;22.73;74.52;101350.94;5135355;27;19907;-40
2021/06/28 08:13:47;;;;;;;;;;;;;;;22.84;74.07;101343.34;5134532;27;19907;-40
2021/06/28 08:16:13;;;;;;;;;;;;;;;23.00;71.76;101338.41;5135322;27;19918;-40
2021/06/28 08:18:38;;;;;;;;;;;;;;;23.05;71.48;101328.09;5134974;27;19911;-40
2021/06/28 08:21:04;;;;;;;;;;;;;;;22.97;72.28;101336.25;5136066;27;20330;-40
2021/06/28 08:23:30;;;;;;;;;;;;;;;22.95;72.66;101338.50;5134856;27;19936;-40
2021/06/28 08:25:55;;;;;;;;;;;;;;;22.86;71.53;101344.66;5135132;27;20279;-41
2021/06/28 08:28:20;;;;;;;;;;;;;;;22.80;71.80;101340.34;5134756;27;20369;-41
2021/06/28 08:30:45;;;;;;;;;;;;;;;22.87;72.83;101346.28;5135060;27;19907;-40
2021/06/28 08:33:11;;;;;;;;;;;;;;;23.07;72.81;101344.34;5134931;27;19929;-41
2021/06/28 08:35:36;;;;;;;;;;;;;;;23.28;73.18;101347.56;5135075;27;20342;-41
2021/06/28 08:38:03;;;;;;;;;;;;;;;23.48;72.51;101349.13;5135257;27;19964;-41
2021/06/28 08:40:29;;;;;;;;;;;;;;;23.50;71.96;101341.34;5135805;27;19911;-41
2021/06/28 08:42:54;;;;;;;;;;;;;;;23.49;72.23;101346.03;5135215;27;20000;-41
2021/06/28 08:45:21;;;;;;;;;;;;;;;23.36;70.94;101342.13;5135438;27;20018;-40
2021/06/28 08:47:47;;;;;;;;;;;;;;;23.37;72.00;101345.72;5135127;27;20350;-40
2021/06/28 08:50:12;;;;;;;;;;;;;;;23.42;72.15;101340.09;5134410;27;19911;-40
2021/06/28 08:52:39;;;;;;;;;;;;;;;23.41;71.33;101345.91;5134351;27;19914;-41
2021/06/28 08:55:05;;;;;;;;;;;;;;;23.41;71.86;101343.97;5135536;27;19993;-40
2021/06/28 08:57:31;;;;;;;;;;;;;;;23.44;71.96;101354.41;5135777;27;19907;-40
2021/06/28 08:59:56;;;;;;;;;;;;;;;23.34;69.53;101360.94;5134728;27;19914;-40
2021/06/28 09:02:21;;;;;;;;;;;;;;;23.32;71.30;101365.94;5135020;28;19994;-40
2021/06/28 09:05:00;;;;;;;;;;;;;;;23.26;71.00;101367.16;5134721;28;20006;-40
2021/06/28 09:07:25;;;;;;;;;;;;;;;23.29;71.61;101369.31;5134647;27;19908;-40
2021/06/28 09:09:51;;;;;;;;;;;;;;;23.34;71.70;101371.97;5134422;27;20362;-40
2021/06/28 09:12:17;;;;;;;;;;;;;;;23.36;71.54;101369.72;5134558;27;19911;-40
2021/06/28 09:14:46;;;;;;;;;;;;;;;23.37;71.73;101376.88;5135323;27;19915;-40
2021/06/28 09:17:32;;;;;;;;;;;;;;;23.42;71.43;101373.22;5134827;27;19964;-40
2021/06/28 09:20:13;;;;;;;;;;;;;;;23.41;71.58;101371.56;5133773;28;20274;-40
2021/06/28 09:22:39;;;;;;;;;;;;;;;23.38;71.17;101369.44;5134467;27;19960;-40
2021/06/28 09:25:06;;;;;;;;;;;;;;;23.35;71.48;101368.09;5134445;27;19907;-40
2021/06/28 09:27:39;;;;;;;;;;;;;;;23.33;71.51;101369.53;5134392;27;19952;-40
2021/06/28 09:30:13;;;;;;;;;;;;;;;23.32;71.44;101365.13;5134396;27;19970;-40
2021/06/28 09:32:49;;;;;;;;;;;;;;;23.32;71.50;101367.88;5134655;27;19934;-40
2021/06/28 09:35:26;;;;;;;;;;;;;;;23.32;71.62;101367.88;5134481;27;19907;-40
2021/06/28 09:37:51;;;;;;;;;;;;;;;23.32;71.62;101379.72;5134678;27;19907;-40
2021/06/28 09:40:22;;;;;;;;;;;;;;;23.30;71.60;101382.00;5134329;28;19907;-40
2021/06/28 09:42:47;;;;;;;;;;;;;;;23.25;71.50;101382.09;5134423;27;19907;-40
2021/06/28 09:45:15;;;;;;;;;;;;;;;23.21;71.71;101383.81;5134836;28;20003;-40
2021/06/28 09:47:41;;;;;;;;;;;;;;;23.21;71.60;101383.00;5134204;27;20312;-40
2021/06/28 09:50:14;;;;;;;;;;;;;;;23.18;71.51;101383.59;5134515;28;19907;-40
2021/06/28 09:52:42;;;;;;;;;;;;;;;23.15;71.76;101390.53;5134298;27;19911;-40
2021/06/28 09:55:14;;;;;;;;;;;;;;;23.12;71.70;101385.63;5133941;27;19990;-40
2021/06/28 09:57:59;;;;;;;;;;;;;;;23.07;71.54;101393.97;5134115;28;19964;-40
2021/06/28 10:00:24;;;;;;;;;;;;;;;22.99;71.86;101398.25;5134534;27;19914;-40
2021/06/28 10:02:49;;;;;;;;;;;;;;;22.94;71.44;101394.78;5137878;27;20001;-40
2021/06/28 10:05:20;;;;;;;;;;;;;;;22.86;71.80;101397.06;5137895;27;19960;-40
2021/06/28 10:07:45;;;;;;;;;;;;;;;22.79;71.81;101410.41;5138289;27;19907;-40
2021/06/28 10:10:13;;;;;;;;;;;;;;;22.76;72.04;101402.72;5137625;27;19907;-40
2021/06/28 10:12:43;;;;;;;;;;;;;;;22.75;72.16;101392.81;5137202;27;19923;-40
2021/06/28 10:15:10;;;;;;;;;;;;;;;22.73;71.97;101403.31;5138479;27;19907;-40
2021/06/28 10:17:36;;;;;;;;;;;;;;;22.75;72.19;101403.84;5137240;27;20427;-40
2021/06/28 10:20:02;;;;;;;;;;;;;;;22.78;72.06;101399.66;5137838;27;19914;-40
2021/06/28 10:22:27;;;;;;;;;;;;;;;22.82;72.24;101398.75;5137809;27;19914;-40
2021/06/28 10:24:53;;;;;;;;;;;;;;;22.85;72.32;101405.63;5137455;27;19911;-40
2021/06/28 10:27:19;;;;;;;;;;;;;;;22.87;71.99;101417.16;5137290;27;19907;-40
2021/06/28 10:29:44;;;;;;;;;;;;;;;22.86;72.26;101419.09;5137978;27;19914;-40
2021/06/28 10:32:10;;;;;;;;;;;;;;;22.84;72.23;101413.09;5137233;27;19907;-40
2021/06/28 10:34:37;;;;;;;;;;;;;;;22.82;72.18;101415.31;5138014;27;19907;-40
2021/06/28 10:37:03;;;;;;;;;;;;;;;22.78;72.02;101408.75;5137247;27;19933;-40
2021/06/28 10:39:30;;;;;;;;;;;;;;;22.75;72.20;101408.53;5137940;27;19982;-40
2021/06/28 10:41:56;;;;;;;;;;;;;;;22.72;72.29;101415.47;5137382;27;20351;-40
2021/06/28 10:44:22;;;;;;;;;;;;;;;22.68;72.13;101408.91;5136630;27;19953;-40
2021/06/28 10:46:49;;;;;;;;;;;;;;;22.65;72.39;101414.22;5137682;27;19971;-40
2021/06/28 10:49:14;;;;;;;;;;;;;;;22.62;72.37;101404.59;5137514;27;19908;-40
2021/06/28 10:51:47;;;;;;;;;;;;;;;22.61;72.45;101401.03;5136916;27;19907;-40
2021/06/28 10:54:15;;;;;;;;;;;;;;;22.62;72.72;101399.09;5137071;27;19915;-40
2021/06/28 10:56:42;;;;;;;;;;;;;;;22.60;72.37;101393.06;5136447;27;20239;-40
2021/06/28 10:59:14;;;;;;;;;;;;;;;22.61;72.18;101391.94;5136424;27;19907;-40
2021/06/28 11:02:05;;;;;;;;;;;;;;;22.61;72.19;101398.25;5137222;27;19956;-40
2021/06/28 11:04:32;;;;;;;;;;;;;;;22.61;72.16;101392.75;5133226;27;20039;-40
2021/06/28 11:07:03;;;;;;;;;;;;;;;22.62;72.11;101394.38;5136958;27;19998;-40
2021/06/28 11:09:42;;;;;;;;;;;;;;;22.61;72.15;101398.25;5136822;27;20281;-40
2021/06/28 11:12:20;;;;;;;;;;;;;;;22.57;72.07;101390.88;5136811;27;19946;-40
2021/06/28 11:14:47;;;;;;;;;;;;;;;22.55;72.51;101393.13;5136401;27;20434;-40
2021/06/28 11:17:18;;;;;;;;;;;;;;;22.52;72.58;101386.28;5136914;27;19911;-40
2021/06/28 11:19:50;;;;;;;;;;;;;;;22.48;72.44;101392.69;5136239;27;19914;-40
2021/06/28 11:22:36;;;;;;;;;;;;;;;22.44;72.74;101386.13;5136265;27;20403;-40
2021/06/28 11:25:07;;;;;;;;;;;;;;;22.40;73.10;101383.16;5136311;27;19907;-40
2021/06/28 11:27:33;;;;;;;;;;;;;;;22.38;72.89;101385.38;5136402;27;19915;-40
2021/06/28 11:29:59;;;;;;;;;;;;;;;22.38;73.14;101381.81;5135977;27;19907;-40
2021/06/28 11:32:26;;;;;;;;;;;;;;;22.36;73.17;101376.59;5136262;27;19922;-40
2021/06/28 11:34:51;;;;;;;;;;;;;;;22.35;73.93;101372.19;5135963;27;19911;-40
2021/06/28 11:37:17;;;;;;;;;;;;;;;22.36;73.70;101380.16;5136287;27;19908;-40
2021/06/28 11:39:54;;;;;;;;;;;;;;;22.34;73.63;101370.53;5136443;27;20327;-40
2021/06/28 11:42:26;;;;;;;;;;;;;;;22.35;73.93;101369.44;5136130;27;19907;-40
2021/06/28 11:44:53;;;;;;;;;;;;;;;22.34;73.62;101371.38;5134375;27;19914;-40
2021/06/28 11:47:18;;;;;;;;;;;;;;;22.37;73.78;101380.97;5136331;27;19998;-40
2021/06/28 11:49:43;;;;;;;;;;;;;;;22.39;73.77;101372.41;5136563;27;20002;-40
2021/06/28 11:52:15;;;;;;;;;;;;;;;22.44;73.53;101372.34;5135890;27;20258;-40
2021/06/28 11:54:40;;;;;;;;;;;;;;;22.50;73.78;101369.22;5136536;27;19915;-40
2021/06/28 11:57:06;;;;;;;;;;;;;;;22.53;73.63;101365.84;5135263;27;20520;-40
2021/06/28 11:59:32;;;;;;;;;;;;;;;22.61;74.93;101356.09;5135478;27;19907;-40
2021/06/28 12:01:58;;;;;;;;;;;;;;;22.71;74.88;101358.69;5136647;27;20002;-40
2021/06/28 12:04:27;;;;;;;;;;;;;;;22.81;74.57;101358.53;5136049;27;19914;-40
2021/06/28 12:06:54;;;;;;;;;;;;;;;22.93;74.19;101360.03;5135791;27;19918;-40
2021/06/28 12:09:21;;;;;;;;;;;;;;;23.00;74.23;101344.75;5135612;27;19907;-40
2021/06/28 12:11:47;;;;;;;;;;;;;;;23.06;73.99;101357.31;5135900;27;20331;-40
2021/06/28 12:14:26;;;;;;;;;;;;;;;23.10;73.92;101357.53;5135320;27;19915;-40
2021/06/28 12:16:51;;;;;;;;;;;;;;;23.16;74.16;101361.81;5135299;27;19912;-40
2021/06/28 12:19:16;;;;;;;;;;;;;;;23.15;73.39;101351.09;5135715;27;19915;-40
2021/06/28 12:21:42;;;;;;;;;;;;;;;23.15;73.68;101353.88;5135095;27;19976;-40
2021/06/28 12:24:09;;;;;;;;;;;;;;;23.15;73.61;101353.88;5134043;27;19907;-40
2021/06/28 12:26:35;;;;;;;;;;;;;;;23.16;73.62;101352.72;5135319;27;19907;-40
2021/06/28 12:29:19;;;;;;;;;;;;;;;23.11;73.09;101346.19;5135038;27;20410;-40
2021/06/28 12:31:44;;;;;;;;;;;;;;;23.10;73.25;101346.50;5134970;27;19911;-40